首页
METAR-TAF:

METAR-TAF

机场 :

羅曼·莫圖國際機場

科羅爾, 巴伯尔道布岛, 帛琉

纬度: 07-22N, 经度: 134-32E, 海拔: 54米

当前天气观测

该预报发布于1小时和10分钟前的00:50 UTC
风速4节,风向
温度 31°C
湿度 75%
气压 1009 hPa
能見度: 24.1公里
散云层高于1600英尺, 塔状积云.
多云层高于13000英尺
多云层高于30000英尺

METAR: PTRO 200050Z 18004KT 15SM SCT016TCU BKN130 BKN300 31/26 A2981 RMK TCU SW

时间: 11:00 (02:00 UTC)

预报

该预报发布于2小时和26分钟前的23:34 UTC
预报有效从20日的 00点(UTC)到 20日的 24点(UTC)
风速7节,风向西南
能見度: 10公里
散云层高于1600英尺
多云层高于12000英尺
附近有阵雨
短暂存在
从 20日的 01点(UTC)到 20日的 05点(UTC)
多云层高于1400英尺
小阵雨,

TAF: PTRO 192334Z 2000/2024 22007KT P6SM VCSH SCT016 BKN120 TEMPO 2001/2005 -SHRA BKN014

超过4000个机场的气象观测和天气预报(METAR&TAF报告)。

可查询的气象台以黄色和红色小点在地图上表示。

将鼠标移到小点上方,可查看气象台名称。

然后点击查看天气观测和预报。

如需切换地图:点击带黑十字的绿色按钮放大地图;点击带横线的绿色按钮缩小地图;或者点击绿色箭头查看邻近地区的地图。


METAR-TAF: